createdAt,value
2023-03-19T00:02:31.565Z,23.2
2023-03-19T00:07:32.665Z,22.1
2023-03-19T00:12:33.111Z,22.2
2023-03-19T00:17:33.688Z,22.1
2023-03-19T00:27:34.712Z,18.1
2023-03-19T00:32:35.524Z,21.4
2023-03-19T00:37:36.130Z,20
2023-03-19T00:42:36.663Z,22.3
2023-03-19T00:47:37.518Z,18.9
2023-03-19T00:52:37.987Z,21.3
2023-03-19T00:57:38.476Z,19.4
2023-03-19T01:02:39.473Z,18.9
2023-03-19T01:07:40.484Z,19.1
2023-03-19T01:12:41.026Z,21.2
2023-03-19T01:17:41.919Z,20
2023-03-19T01:22:42.596Z,19
2023-03-19T01:27:43.024Z,21.1
2023-03-19T01:32:44.451Z,17.4
2023-03-19T01:37:45.299Z,17.1
2023-03-19T01:42:45.891Z,17.9
2023-03-19T01:47:46.389Z,15.1
2023-03-19T01:52:46.743Z,16.5
2023-03-19T01:57:47.303Z,14.1
2023-03-19T02:02:48.111Z,14.7
2023-03-19T02:07:48.818Z,13.4
2023-03-19T02:12:49.345Z,13.8
2023-03-19T02:17:50.287Z,15.9
2023-03-19T02:22:50.835Z,13.5
2023-03-19T02:27:51.343Z,13.3
2023-03-19T02:32:52.091Z,14.1
2023-03-19T02:37:52.816Z,15.7
2023-03-19T02:42:53.334Z,15.1
2023-03-19T02:47:53.915Z,15.1
2023-03-19T02:52:54.597Z,16.2
2023-03-19T02:57:55.260Z,14.3
2023-03-19T03:02:56.233Z,14.1
2023-03-19T03:07:57.161Z,14.8
2023-03-19T03:12:57.921Z,13.4
2023-03-19T03:17:58.624Z,14
2023-03-19T03:22:59.281Z,13.1
2023-03-19T03:28:00.013Z,14.2
2023-03-19T03:33:00.758Z,12.6
2023-03-19T03:38:01.580Z,11.4
2023-03-19T03:43:02.283Z,12.5
2023-03-19T03:48:02.960Z,14.5
2023-03-19T03:53:03.384Z,13.8
2023-03-19T03:58:04.298Z,12
2023-03-19T04:03:05.095Z,14.1
2023-03-19T04:08:06.236Z,14.9
2023-03-19T04:13:06.835Z,14.5
2023-03-19T04:18:07.536Z,13.7
2023-03-19T04:23:08.206Z,12.6
2023-03-19T04:28:08.745Z,13.8
2023-03-19T04:33:09.489Z,13.6
2023-03-19T04:38:10.073Z,13.2
2023-03-19T04:43:10.679Z,13.9
2023-03-19T04:48:11.513Z,13.4
2023-03-19T04:53:12.006Z,13.9
2023-03-19T04:58:12.641Z,16.6
2023-03-19T05:03:13.446Z,16
2023-03-19T05:08:14.293Z,14.5
2023-03-19T05:13:14.861Z,17.3
2023-03-19T05:18:15.470Z,15.9
2023-03-19T05:23:16.158Z,17.2
2023-03-19T05:28:17.134Z,16
2023-03-19T05:33:17.703Z,16.9
2023-03-19T05:38:18.335Z,17.1
2023-03-19T05:43:18.852Z,13.5
2023-03-19T05:48:19.579Z,14.2
2023-03-19T05:53:20.150Z,16.4
2023-03-19T05:58:20.873Z,17.4
2023-03-19T06:03:21.453Z,15.1
2023-03-19T06:08:22.041Z,13.7
2023-03-19T06:13:22.681Z,18.2
2023-03-19T06:18:23.491Z,17.5
2023-03-19T06:23:24.046Z,16.7
2023-03-19T06:28:24.545Z,16.6
2023-03-19T06:33:24.988Z,13.8
2023-03-19T06:38:25.608Z,13.2
2023-03-19T06:43:26.135Z,13.5
2023-03-19T06:48:27.012Z,13.7
2023-03-19T06:53:27.507Z,14.5
2023-03-19T06:58:28.063Z,12.9
2023-03-19T07:03:28.766Z,14.6
2023-03-19T07:08:29.400Z,14
2023-03-19T07:13:30.094Z,13
2023-03-19T07:18:30.538Z,13.2
2023-03-19T07:23:30.967Z,12.5
2023-03-19T07:28:31.668Z,10.4
2023-03-19T07:33:32.521Z,12.5
2023-03-19T07:38:32.891Z,12.2
2023-03-19T07:43:33.268Z,12
2023-03-19T07:48:34.245Z,13
2023-03-19T07:53:34.780Z,13.2
2023-03-19T07:58:35.398Z,11.4
2023-03-19T08:03:36.055Z,11.7
2023-03-19T08:08:36.720Z,12.5
2023-03-19T08:13:37.324Z,8.8
2023-03-19T08:18:38.157Z,10
2023-03-19T08:23:38.743Z,9.3
2023-03-19T08:28:39.682Z,10.2
2023-03-19T08:33:40.220Z,10.2
2023-03-19T08:38:40.671Z,9.2
2023-03-19T08:43:41.192Z,10.7
2023-03-19T08:48:41.767Z,9.7
2023-03-19T08:53:42.147Z,8.8
2023-03-19T08:58:43.113Z,10
2023-03-19T09:03:44.076Z,9.7
2023-03-19T09:08:44.831Z,8.8
2023-03-19T09:13:45.444Z,8
2023-03-19T09:18:46.141Z,7.4
2023-03-19T09:23:46.581Z,7.3
2023-03-19T09:28:47.158Z,7.9
2023-03-19T09:33:47.676Z,8.9
2023-03-19T09:38:48.186Z,7.6
2023-03-19T09:43:48.617Z,8.6
2023-03-19T09:48:49.569Z,7.7
2023-03-19T09:53:50.061Z,7.5
2023-03-19T09:58:50.460Z,8.2
2023-03-19T10:03:51.137Z,8.2
2023-03-19T10:08:51.750Z,7.7
2023-03-19T10:13:52.309Z,6.9
2023-03-19T10:18:53.216Z,8.7
2023-03-19T10:23:54.393Z,7.7
2023-03-19T10:28:54.829Z,9.5
2023-03-19T10:33:55.437Z,8.1
2023-03-19T10:38:55.965Z,6.5
2023-03-19T10:43:56.409Z,6.8
2023-03-19T10:48:56.950Z,8.2
2023-03-19T10:53:57.481Z,6.5
2023-03-19T10:58:57.998Z,7.5
2023-03-19T11:03:58.691Z,6.7
2023-03-19T11:08:59.699Z,6.6
2023-03-19T11:14:00.264Z,7.6
2023-03-19T11:19:00.810Z,8.2
2023-03-19T11:24:01.300Z,8.1
2023-03-19T11:29:01.956Z,6.4
2023-03-19T11:34:02.667Z,7
2023-03-19T11:39:03.727Z,6.9
2023-03-19T11:44:04.219Z,6.8
2023-03-19T11:49:04.660Z,5.9
2023-03-19T11:54:05.152Z,5.1
2023-03-19T11:59:06.101Z,8
2023-03-19T12:04:06.636Z,5.4
2023-03-19T12:09:07.374Z,6.2
2023-03-19T12:14:07.977Z,5
2023-03-19T12:19:08.690Z,5.7
2023-03-19T12:24:09.110Z,6.1
2023-03-19T12:29:09.509Z,8.1
2023-03-19T12:34:11.219Z,6.3
2023-03-19T12:39:14.618Z,5.4
2023-03-19T12:44:15.110Z,6.2
2023-03-19T12:49:15.671Z,7.4
2023-03-19T12:54:16.098Z,6.6
2023-03-19T12:59:16.544Z,6
2023-03-19T13:04:17.740Z,6.6
2023-03-19T13:09:18.391Z,8.9
2023-03-19T13:14:18.851Z,6.9
2023-03-19T13:19:19.395Z,8
2023-03-19T13:24:19.879Z,6.5
2023-03-19T13:29:20.920Z,7.2
2023-03-19T13:34:21.532Z,7.2
2023-03-19T13:39:22.094Z,7.2
2023-03-19T13:44:22.545Z,8.7
2023-03-19T13:49:23.087Z,7.3
2023-03-19T13:54:27.177Z,7.2
2023-03-19T13:59:27.803Z,8.1
2023-03-19T14:04:28.721Z,7.7
2023-03-19T14:09:29.461Z,12.5
2023-03-19T14:14:30.124Z,8.8
2023-03-19T14:19:30.918Z,9.1
2023-03-19T14:24:55.059Z,8.9
2023-03-19T14:29:38.016Z,9.4
2023-03-19T14:34:38.669Z,9.3
2023-03-19T14:39:40.704Z,8.5
2023-03-19T14:44:41.272Z,10.4
2023-03-19T14:49:41.710Z,8.1
2023-03-19T14:54:42.066Z,7.6
2023-03-19T14:59:42.530Z,7.3
2023-03-19T15:04:44.779Z,8.6
2023-03-19T15:09:46.170Z,6.6
2023-03-19T15:14:46.736Z,9.2
2023-03-19T15:19:47.241Z,8.8
2023-03-19T15:24:47.614Z,11.4
2023-03-19T15:29:49.918Z,10.2
2023-03-19T15:34:51.898Z,8
2023-03-19T15:39:52.703Z,7.9
2023-03-19T15:44:54.522Z,11.9
2023-03-19T15:49:55.115Z,9
2023-03-19T15:54:56.012Z,9.7
2023-03-19T15:59:56.630Z,9.4
2023-03-19T16:05:22.167Z,9.3
2023-03-19T16:10:03.504Z,9.6
2023-03-19T16:15:03.996Z,10.6
2023-03-19T16:20:04.431Z,11.3
2023-03-19T16:25:08.457Z,13.8
2023-03-19T16:30:08.838Z,8.9
2023-03-19T16:35:09.272Z,8.4
2023-03-19T16:40:09.625Z,8
2023-03-19T16:45:12.530Z,9.8
2023-03-19T16:50:13.388Z,12.4
2023-03-19T16:55:13.904Z,12.6
2023-03-19T17:00:14.347Z,11.8
2023-03-19T17:05:14.884Z,15.5
2023-03-19T17:10:15.370Z,15.7
2023-03-19T17:15:16.408Z,20.9
2023-03-19T17:20:17.178Z,21.7
2023-03-19T17:25:17.555Z,21.3
2023-03-19T17:30:18.020Z,23.3
2023-03-19T17:35:18.572Z,18.3
2023-03-19T17:40:19.303Z,16.4
2023-03-19T17:45:20.344Z,19
2023-03-19T17:50:20.940Z,21.2
2023-03-19T17:55:22.731Z,23
2023-03-19T18:00:23.228Z,25.6
2023-03-19T18:05:23.796Z,20.7
2023-03-19T18:10:24.365Z,27.4
2023-03-19T18:15:25.516Z,21.8
2023-03-19T18:20:26.238Z,24.6
2023-03-19T18:25:26.923Z,26.4
2023-03-19T18:30:27.442Z,27.1
2023-03-19T18:35:28.361Z,31
2023-03-19T18:40:33.164Z,32.1
2023-03-19T18:45:34.662Z,27.3
2023-03-19T18:50:35.644Z,25.1
2023-03-19T18:55:37.720Z,29.2
2023-03-19T19:00:38.050Z,25.4
2023-03-19T19:05:38.584Z,23.3
2023-03-19T19:10:38.922Z,22
2023-03-19T19:15:39.528Z,22.6
2023-03-19T19:20:39.968Z,20.8
2023-03-19T19:25:40.470Z,19.4
2023-03-19T19:30:40.977Z,19.9
2023-03-19T19:35:41.754Z,19.8
2023-03-19T19:40:42.551Z,22.4
2023-03-19T19:45:51.462Z,21.5
2023-03-19T19:50:52.066Z,23.4
2023-03-19T19:55:55.619Z,24.3
2023-03-19T20:06:01.548Z,28.3
2023-03-19T20:11:02.045Z,28.2
2023-03-19T20:16:02.738Z,27.9
2023-03-19T20:21:03.737Z,30.5
2023-03-19T20:26:04.240Z,26.2
2023-03-19T20:31:04.646Z,27.2
2023-03-19T20:36:05.227Z,22.7
2023-03-19T20:41:05.626Z,22.9
2023-03-19T20:46:06.366Z,23.8
2023-03-19T20:51:06.840Z,22.5
2023-03-19T20:56:08.843Z,25
2023-03-19T21:01:09.394Z,23.4
2023-03-19T21:06:10.045Z,25.3
2023-03-19T21:11:10.504Z,24.1
2023-03-19T21:16:11.221Z,23.2
2023-03-19T21:21:11.742Z,23
2023-03-19T21:26:12.295Z,23.7
2023-03-19T21:31:12.842Z,19.9
2023-03-19T21:36:13.615Z,20.8
2023-03-19T21:41:14.212Z,20.7
2023-03-19T21:46:23.958Z,21.1
2023-03-19T21:51:15.104Z,20
2023-03-19T21:56:15.849Z,19.7
2023-03-19T22:01:16.397Z,19.6
2023-03-19T22:06:17.402Z,16.8
2023-03-19T22:11:20.823Z,18.7
2023-03-19T22:16:21.531Z,19.1
2023-03-19T22:21:22.052Z,21.9
2023-03-19T22:26:22.508Z,23.7
2023-03-19T22:31:23.082Z,20.9
2023-03-19T22:36:24.043Z,23.3
2023-03-19T22:41:24.504Z,23.2
2023-03-19T22:46:25.149Z,22.5
2023-03-19T22:51:26.024Z,24.6
2023-03-19T22:56:26.825Z,24
2023-03-19T23:01:27.340Z,26.7
2023-03-19T23:06:30.449Z,25.4
2023-03-19T23:11:31.439Z,22.9
2023-03-19T23:16:32.355Z,25.2
2023-03-19T23:21:33.612Z,23.7
2023-03-19T23:26:34.268Z,27.1
2023-03-19T23:36:40.068Z,26
2023-03-19T23:41:40.594Z,25.1
2023-03-19T23:46:41.144Z,28.6
2023-03-19T23:51:41.563Z,32.3
2023-03-19T23:56:41.973Z,26.4
